createdAt,value
2019-04-21T00:00:54.065Z,54.309082
2019-04-21T00:01:50.536Z,54.02832
2019-04-21T00:02:49.151Z,55.047607
2019-04-21T00:03:52.039Z,54.437256
2019-04-21T00:04:57.760Z,54.638672
2019-04-21T00:06:08.654Z,54.13208
2019-04-21T00:07:08.238Z,54.13208
2019-04-21T00:08:07.308Z,53.308105
2019-04-21T00:09:10.845Z,54.02832
2019-04-21T00:10:05.650Z,54.02832
2019-04-21T00:11:09.162Z,54.333496
2019-04-21T00:12:07.098Z,54.02832
2019-04-21T00:13:01.682Z,54.25415
2019-04-21T00:14:00.847Z,53.747559
2019-04-21T00:14:57.728Z,54.25415
2019-04-21T00:15:54.822Z,54.156494
2019-04-21T00:16:52.788Z,54.46167
2019-04-21T00:17:51.533Z,54.052734
2019-04-21T00:18:56.958Z,54.46167
2019-04-21T00:19:48.013Z,54.56543
2019-04-21T00:20:51.471Z,54.156494
2019-04-21T00:21:55.217Z,53.747559
2019-04-21T00:23:02.715Z,53.436279
2019-04-21T00:24:04.750Z,54.052734
2019-04-21T00:25:00.906Z,54.46167
2019-04-21T00:26:00.164Z,54.46167
2019-04-21T00:27:05.068Z,54.766846
2019-04-21T00:28:06.410Z,54.25415
2019-04-21T00:29:08.953Z,54.974365
2019-04-21T00:30:10.577Z,54.974365
2019-04-21T00:31:04.159Z,54.79126
2019-04-21T00:32:01.365Z,54.89502
2019-04-21T00:32:59.632Z,55.615234
2019-04-21T00:33:50.149Z,55.206299
2019-04-21T00:34:56.145Z,55.81665
2019-04-21T00:35:57.627Z,56.433105
2019-04-21T00:36:59.513Z,56.945801
2019-04-21T00:38:11.763Z,57.354736
2019-04-21T00:39:20.511Z,57.147217
2019-04-21T00:40:09.037Z,56.768799
2019-04-21T00:41:13.073Z,56.561279
2019-04-21T00:42:09.655Z,56.45752
2019-04-21T00:43:07.452Z,56.152344
2019-04-21T00:44:03.947Z,56.35376
2019-04-21T00:45:01.661Z,56.072998
2019-04-21T00:45:59.662Z,56.048584
2019-04-21T00:47:01.688Z,56.152344
2019-04-21T00:48:09.609Z,55.535889
2019-04-21T00:49:05.442Z,56.35376
2019-04-21T00:50:10.550Z,56.561279
2019-04-21T00:51:24.790Z,56.152344
2019-04-21T00:52:20.702Z,56.561279
2019-04-21T00:53:10.177Z,56.152344
2019-04-21T00:54:16.488Z,55.944824
2019-04-21T00:55:19.920Z,55.944824
2019-04-21T00:56:15.112Z,55.743408
2019-04-21T00:57:16.225Z,56.45752
2019-04-21T00:58:17.041Z,55.944824
2019-04-21T00:59:13.466Z,56.970215
2019-04-21T01:00:11.486Z,56.768799
2019-04-21T01:01:06.979Z,56.768799
2019-04-21T01:02:08.894Z,56.45752
2019-04-21T01:03:14.055Z,56.45752
2019-04-21T01:04:07.691Z,56.793213
2019-04-21T01:05:16.323Z,56.488037
2019-04-21T01:06:15.859Z,57.409668
2019-04-21T01:07:12.266Z,57.202148
2019-04-21T01:09:07.458Z,57.409668
2019-04-21T01:10:05.082Z,56.896973
2019-04-21T01:11:15.140Z,57.714844
2019-04-21T01:12:12.096Z,58.435059
2019-04-21T01:13:15.767Z,58.331299
2019-04-21T01:14:11.593Z,58.227539
2019-04-21T01:15:18.155Z,57.611084
2019-04-21T01:16:13.610Z,57.128906
2019-04-21T01:17:12.728Z,57.330322
2019-04-21T01:18:08.786Z,56.408691
2019-04-21T01:19:10.359Z,56.201172
2019-04-21T01:20:06.151Z,56.896973
2019-04-21T01:20:51.309Z,57.202148
2019-04-21T01:21:51.466Z,57.098389
2019-04-21T01:22:51.561Z,56.488037
2019-04-21T01:23:55.548Z,57.000732
2019-04-21T01:24:59.946Z,57.305908
2019-04-21T01:26:06.169Z,56.896973
2019-04-21T01:27:00.499Z,57.513428
2019-04-21T01:28:09.757Z,57.330322
2019-04-21T01:29:05.264Z,57.128906
2019-04-21T01:30:11.374Z,56.921387
2019-04-21T01:31:08.578Z,57.330322
2019-04-21T01:32:17.612Z,57.434082
2019-04-21T01:33:12.167Z,57.128906
2019-04-21T01:34:14.603Z,57.641602
2019-04-21T01:35:08.226Z,57.330322
2019-04-21T01:36:08.016Z,57.128906
2019-04-21T01:37:03.702Z,57.128906
2019-04-21T01:38:13.692Z,57.232666
2019-04-21T01:39:12.958Z,56.921387
2019-04-21T01:40:16.029Z,57.128906
2019-04-21T01:41:12.777Z,56.408691
2019-04-21T01:42:08.666Z,56.713867
2019-04-21T01:43:13.238Z,56.201172
2019-04-21T01:44:12.001Z,56.408691
2019-04-21T01:45:09.130Z,56.512451
2019-04-21T01:46:08.915Z,56.713867
2019-04-21T01:47:09.960Z,56.921387
2019-04-21T01:48:08.894Z,56.817627
2019-04-21T01:49:04.320Z,57.641602
2019-04-21T01:50:02.330Z,57.537842
2019-04-21T01:51:08.375Z,57.434082
2019-04-21T01:52:23.527Z,58.587646
2019-04-21T01:53:17.135Z,58.38623
2019-04-21T01:54:14.294Z,58.282471
2019-04-21T01:55:12.165Z,58.48999
2019-04-21T01:56:11.531Z,58.691406
2019-04-21T01:57:12.200Z,58.795166
2019-04-21T01:58:05.786Z,58.92334
2019-04-21T01:59:01.242Z,59.234619
2019-04-21T02:00:04.378Z,58.825684
2019-04-21T02:01:08.376Z,59.234619
2019-04-21T02:02:10.230Z,59.338379
2019-04-21T02:03:20.853Z,59.130859
2019-04-21T02:04:13.650Z,59.0271
2019-04-21T02:05:16.796Z,58.92334
2019-04-21T02:06:16.963Z,59.130859
2019-04-21T02:07:14.466Z,59.0271
2019-04-21T02:08:10.591Z,59.130859
2019-04-21T02:09:09.552Z,59.234619
2019-04-21T02:10:17.458Z,59.234619
2019-04-21T02:11:16.726Z,59.0271
2019-04-21T02:12:13.201Z,58.953857
2019-04-21T02:13:11.595Z,59.259033
2019-04-21T02:14:14.557Z,59.057617
2019-04-21T02:15:16.451Z,59.259033
2019-04-21T02:16:16.763Z,59.362793
2019-04-21T02:17:13.131Z,58.746338
2019-04-21T02:18:11.739Z,58.746338
2019-04-21T02:19:08.989Z,58.850098
2019-04-21T02:20:06.409Z,58.642578
2019-04-21T02:20:59.978Z,58.129883
2019-04-21T02:22:07.893Z,58.026123
2019-04-21T02:24:20.264Z,58.746338
2019-04-21T02:25:31.248Z,58.850098
2019-04-21T02:26:15.911Z,58.337402
2019-04-21T02:27:12.571Z,58.337402
2019-04-21T02:28:19.144Z,58.978271
2019-04-21T02:29:20.421Z,58.978271
2019-04-21T02:30:26.968Z,58.776855
2019-04-21T02:31:26.327Z,59.185791
2019-04-21T02:32:24.106Z,59.49707
2019-04-21T02:34:23.328Z,60.113525
2019-04-21T02:35:29.632Z,59.93042
2019-04-21T02:37:36.475Z,59.93042
2019-04-21T02:38:29.518Z,60.345459
2019-04-21T02:40:29.210Z,61.474609
2019-04-21T02:42:26.178Z,62.298584
2019-04-21T02:43:24.608Z,62.194824
2019-04-21T02:44:42.646Z,61.785889
2019-04-21T02:45:29.470Z,61.883545
2019-04-21T02:46:31.088Z,62.091064
2019-04-21T02:47:36.531Z,61.608887
2019-04-21T02:48:27.617Z,61.401367
2019-04-21T02:50:35.949Z,61.914062
2019-04-21T02:51:27.240Z,61.914062
2019-04-21T02:52:30.802Z,61.706543
2019-04-21T02:53:26.756Z,62.225342
2019-04-21T02:55:21.782Z,61.682129
2019-04-21T02:56:33.560Z,61.26709
2019-04-21T02:57:21.240Z,61.37085
2019-04-21T02:59:41.580Z,61.578369
2019-04-21T03:01:30.917Z,61.065674
2019-04-21T03:02:33.381Z,60.961914
2019-04-21T03:03:27.413Z,60.961914
2019-04-21T03:04:27.825Z,60.546875
2019-04-21T03:05:27.696Z,60.137939
2019-04-21T03:06:39.166Z,60.03418
2019-04-21T03:07:40.539Z,60.754395
2019-04-21T03:08:33.484Z,60.650635
2019-04-21T03:09:35.441Z,60.961914
2019-04-21T03:11:34.182Z,60.546875
2019-04-21T03:12:21.885Z,60.650635
2019-04-21T03:13:28.869Z,60.137939
2019-04-21T03:15:28.737Z,60.241699
2019-04-21T03:16:30.783Z,60.754395
2019-04-21T03:19:35.654Z,62.017822
2019-04-21T03:22:23.808Z,62.017822
2019-04-21T03:23:27.372Z,61.810303
2019-04-21T03:24:28.795Z,62.121582
2019-04-21T03:26:36.013Z,62.017822
2019-04-21T03:27:48.614Z,62.225342
2019-04-21T03:28:29.501Z,62.329102
2019-04-21T03:29:27.987Z,62.634277
2019-04-21T03:30:55.252Z,62.634277
2019-04-21T03:31:49.103Z,63.28125
2019-04-21T03:35:57.185Z,63.17749
2019-04-21T03:37:36.295Z,62.561035
2019-04-21T03:38:26.682Z,62.664795
2019-04-21T03:39:28.433Z,62.664795
2019-04-21T03:40:25.294Z,62.768555
2019-04-21T03:41:28.589Z,63.28125
2019-04-21T03:42:33.521Z,63.48877
2019-04-21T03:43:26.619Z,63.07373
2019-04-21T03:44:29.916Z,63.592529
2019-04-21T03:45:30.097Z,63.897705
2019-04-21T03:48:35.245Z,63.824463
2019-04-21T03:49:38.843Z,64.135742
2019-04-21T03:50:38.626Z,64.440918
2019-04-21T03:51:25.417Z,64.239502
2019-04-21T03:52:29.382Z,63.928223
2019-04-21T03:54:24.948Z,64.752197
2019-04-21T03:55:48.625Z,64.440918
2019-04-21T03:57:45.712Z,63.85498
2019-04-21T03:58:34.448Z,64.16626
2019-04-21T03:59:24.002Z,64.367676
2019-04-21T04:01:21.378Z,64.27002
2019-04-21T04:02:32.509Z,64.0625
2019-04-21T04:05:34.273Z,64.16626
2019-04-21T04:06:24.309Z,63.85498
2019-04-21T04:07:41.744Z,64.16626
2019-04-21T04:08:43.294Z,65.093994
2019-04-21T04:09:44.188Z,65.39917
2019-04-21T04:10:49.830Z,65.710449
2019-04-21T04:11:43.087Z,65.637207
2019-04-21T04:12:25.942Z,66.046143
2019-04-21T04:13:36.512Z,65.948486
2019-04-21T04:14:30.545Z,65.948486
2019-04-21T04:15:45.108Z,66.149902
2019-04-21T04:16:24.703Z,65.948486
2019-04-21T04:17:25.279Z,66.253662
2019-04-21T04:18:38.852Z,65.844727
2019-04-21T04:19:32.618Z,65.637207
2019-04-21T04:20:27.705Z,65.118408
2019-04-21T04:21:36.929Z,65.222168
2019-04-21T04:22:37.660Z,65.222168
2019-04-21T04:23:40.031Z,65.429688
2019-04-21T04:26:31.250Z,66.357422
2019-04-21T04:28:37.967Z,66.906738
2019-04-21T04:29:31.096Z,66.906738
2019-04-21T04:30:29.132Z,66.906738
2019-04-21T04:31:36.914Z,67.108154
2019-04-21T04:32:28.280Z,67.004395
2019-04-21T04:33:36.968Z,67.108154
2019-04-21T04:34:47.039Z,67.211914
2019-04-21T04:35:33.447Z,67.523193
2019-04-21T04:36:42.364Z,67.626953
2019-04-21T04:39:42.546Z,67.108154
2019-04-21T04:40:30.470Z,67.315674
2019-04-21T04:45:38.200Z,67.730713
2019-04-21T04:46:33.085Z,67.419434
2019-04-21T04:48:27.613Z,67.834473
2019-04-21T04:50:38.941Z,67.419434
2019-04-21T04:51:43.623Z,67.211914
2019-04-21T04:53:39.561Z,67.419434
2019-04-21T04:55:33.007Z,66.906738
2019-04-21T04:56:28.563Z,66.802979
2019-04-21T04:57:46.348Z,66.802979
2019-04-21T05:00:34.175Z,67.108154
2019-04-21T05:03:43.235Z,66.28418
2019-04-21T05:05:33.947Z,67.730713
2019-04-21T05:06:41.816Z,67.932129
2019-04-21T05:07:57.055Z,67.730713
2019-04-21T05:08:41.740Z,67.626953
2019-04-21T05:09:30.386Z,68.109131
2019-04-21T05:10:47.119Z,68.109131
2019-04-21T05:12:28.988Z,67.700195
2019-04-21T05:13:32.979Z,68.109131
2019-04-21T05:14:29.599Z,68.005371
2019-04-21T05:15:23.195Z,68.31665
2019-04-21T05:17:35.766Z,68.725586
2019-04-21T05:18:34.323Z,68.933105
2019-04-21T05:19:29.907Z,68.725586
2019-04-21T05:20:22.642Z,68.109131
2019-04-21T05:21:34.079Z,67.565918
2019-04-21T05:22:27.631Z,68.286133
2019-04-21T05:23:24.184Z,67.974854
2019-04-21T05:24:22.861Z,67.663574
2019-04-21T05:25:22.799Z,67.565918
2019-04-21T05:26:16.981Z,67.358398
2019-04-21T05:27:20.190Z,67.871094
2019-04-21T05:28:18.364Z,67.736816
2019-04-21T05:29:19.251Z,67.840576
2019-04-21T05:30:40.125Z,67.840576
2019-04-21T05:31:31.073Z,67.120361
2019-04-21T05:32:31.797Z,67.327881
2019-04-21T05:33:32.010Z,67.016602
2019-04-21T05:34:26.743Z,67.120361
2019-04-21T05:35:26.216Z,67.327881
2019-04-21T05:36:27.599Z,66.912842
2019-04-21T05:37:28.363Z,67.193604
2019-04-21T05:38:27.055Z,67.602539
2019-04-21T05:39:22.983Z,67.706299
2019-04-21T05:40:21.784Z,67.810059
2019-04-21T05:41:20.487Z,67.193604
2019-04-21T05:42:23.565Z,67.193604
2019-04-21T05:43:27.606Z,67.193604
2019-04-21T05:44:34.602Z,67.163086
2019-04-21T05:46:31.287Z,67.675781
2019-04-21T05:47:32.949Z,67.572021
2019-04-21T05:48:28.065Z,66.644287
2019-04-21T05:49:26.230Z,66.925049
2019-04-21T05:50:26.341Z,67.645264
2019-04-21T05:51:23.566Z,67.230225
2019-04-21T05:53:46.568Z,65.795898
2019-04-21T05:54:38.561Z,65.863037
2019-04-21T05:56:30.365Z,66.687012
2019-04-21T05:57:28.706Z,66.070557
2019-04-21T05:58:31.404Z,66.247559
2019-04-21T05:59:31.261Z,67.169189
2019-04-21T06:01:32.695Z,65.83252
2019-04-21T06:02:28.707Z,65.289307
2019-04-21T06:03:36.581Z,64.880371
2019-04-21T06:04:46.699Z,64.672852
2019-04-21T06:05:36.366Z,65.087891
2019-04-21T06:06:32.121Z,63.751221
2019-04-21T06:08:30.683Z,63.311768
2019-04-21T06:09:34.717Z,64.031982
2019-04-21T06:10:34.493Z,62.902832
2019-04-21T06:11:30.225Z,63.104248
2019-04-21T06:12:32.593Z,63.17749
2019-04-21T06:13:54.801Z,62.976074
2019-04-21T06:14:36.549Z,63.17749
2019-04-21T06:15:35.888Z,62.463379
2019-04-21T06:16:35.589Z,61.535645
2019-04-21T06:17:34.641Z,61.334229
2019-04-21T06:19:36.426Z,60.38208
2019-04-21T06:20:33.225Z,60.583496
2019-04-21T06:21:32.954Z,60.998535
2019-04-21T06:22:28.686Z,61.199951
2019-04-21T06:23:35.814Z,61.199951
2019-04-21T06:24:29.681Z,60.662842
2019-04-21T06:26:49.872Z,61.071777
2019-04-21T06:27:30.998Z,60.559082
2019-04-21T06:28:39.893Z,61.175537
2019-04-21T06:29:35.992Z,61.14502
2019-04-21T06:30:38.894Z,60.839844
2019-04-21T06:33:35.490Z,60.327148
2019-04-21T06:34:47.027Z,59.783936
2019-04-21T06:35:48.101Z,60.095215
2019-04-21T06:37:42.980Z,59.552002
2019-04-21T06:38:42.966Z,59.246826
2019-04-21T06:39:37.027Z,58.734131
2019-04-21T06:42:32.379Z,58.703613
2019-04-21T06:43:39.750Z,58.502197
2019-04-21T06:44:38.591Z,57.250977
2019-04-21T06:45:39.630Z,57.220459
2019-04-21T06:46:34.758Z,57.525635
2019-04-21T06:48:40.359Z,57.702637
2019-04-21T06:49:29.807Z,56.988525
2019-04-21T06:50:39.384Z,56.57959
2019-04-21T06:51:46.661Z,56.57959
2019-04-21T06:53:44.198Z,57.269287
2019-04-21T06:54:39.855Z,56.756592
2019-04-21T06:55:31.909Z,57.067871
2019-04-21T06:56:40.814Z,57.550049
2019-04-21T06:58:35.385Z,55.102539
2019-04-21T06:59:31.510Z,54.669189
2019-04-21T07:00:35.662Z,55.786133
2019-04-21T07:01:42.042Z,56.500244
2019-04-21T07:02:42.111Z,55.456543
2019-04-21T07:03:40.048Z,54.943848
2019-04-21T07:04:42.377Z,53.80249
2019-04-21T07:05:40.533Z,54.412842
2019-04-21T07:06:42.311Z,54.205322
2019-04-21T07:07:34.956Z,54.284668
2019-04-21T07:08:44.159Z,53.875732
2019-04-21T07:09:35.541Z,53.570557
2019-04-21T07:10:36.669Z,53.161621
2019-04-21T07:11:36.518Z,53.778076
2019-04-21T07:12:33.440Z,53.466797
2019-04-21T07:13:36.239Z,52.325439
2019-04-21T07:14:41.717Z,51.611328
2019-04-21T07:15:36.754Z,52.020264
2019-04-21T07:16:38.304Z,52.606201
2019-04-21T07:17:49.743Z,52.606201
2019-04-21T07:18:40.886Z,51.78833
2019-04-21T07:19:40.743Z,51.78833
2019-04-21T07:20:36.103Z,51.867676
2019-04-21T07:21:38.140Z,51.361084
2019-04-21T07:22:41.365Z,51.159668
2019-04-21T07:23:45.677Z,51.464844
2019-04-21T07:24:36.671Z,51.159668
2019-04-21T07:25:38.290Z,51.031494
2019-04-21T07:26:36.153Z,51.031494
2019-04-21T07:27:41.079Z,51.23291
2019-04-21T07:28:31.362Z,51.538086
2019-04-21T07:29:39.290Z,51.947021
2019-04-21T07:30:58.857Z,50.927734
2019-04-21T07:31:46.750Z,51.416016
2019-04-21T07:32:39.862Z,51.922607
2019-04-21T07:34:37.734Z,51.11084
2019-04-21T07:35:37.120Z,50.90332
2019-04-21T07:36:44.818Z,50.701904
2019-04-21T07:37:40.399Z,51.287842
2019-04-21T07:38:39.051Z,51.489258
2019-04-21T07:39:38.629Z,51.489258
2019-04-21T07:40:33.091Z,52.001953
2019-04-21T07:41:32.818Z,50.756836
2019-04-21T07:42:32.346Z,51.367188
2019-04-21T07:43:33.847Z,51.77002
2019-04-21T07:44:34.788Z,52.276611
2019-04-21T07:45:34.907Z,52.484131
2019-04-21T07:46:28.612Z,52.380371
2019-04-21T07:47:39.307Z,51.77002
2019-04-21T07:49:39.526Z,51.44043
2019-04-21T07:50:37.997Z,51.953125
2019-04-21T07:51:45.073Z,52.862549
2019-04-21T07:52:39.216Z,52.557373
2019-04-21T07:53:49.230Z,52.050781
2019-04-21T07:54:44.094Z,52.227783
2019-04-21T07:56:27.326Z,52.331543
2019-04-21T07:57:35.040Z,50.683594
2019-04-21T07:58:45.325Z,50.280762
2019-04-21T07:59:44.773Z,49.975586
2019-04-21T08:00:49.147Z,51.068115
2019-04-21T08:01:35.051Z,50.860596
2019-04-21T08:02:40.112Z,49.54834
2019-04-21T08:04:50.898Z,49.54834
2019-04-21T08:05:57.165Z,51.269531
2019-04-21T08:06:40.149Z,49.926758
2019-04-21T08:08:40.605Z,49.11499
2019-04-21T08:09:40.612Z,49.11499
2019-04-21T08:10:37.623Z,49.09668
2019-04-21T08:11:35.405Z,49.194336
2019-04-21T08:12:35.783Z,50.311279
2019-04-21T08:13:44.715Z,49.09668
2019-04-21T08:14:42.691Z,48.64502
2019-04-21T08:16:44.264Z,45.031738
2019-04-21T08:17:40.985Z,43.823242
2019-04-21T08:18:38.945Z,40.466309
2019-04-21T08:19:35.032Z,40.008545
2019-04-21T08:20:34.455Z,38.348389
2019-04-21T08:21:40.322Z,38.513184
2019-04-21T08:22:46.222Z,36.657715
2019-04-21T08:23:41.223Z,36.724854
2019-04-21T08:24:41.963Z,34.527588
2019-04-21T08:25:45.503Z,35.162354
2019-04-21T08:26:41.277Z,36.376953
2019-04-21T08:27:47.554Z,36.761475
2019-04-21T08:28:45.399Z,35.26001
2019-04-21T08:29:45.828Z,35.876465
2019-04-21T08:30:42.354Z,37.139893
2019-04-21T08:32:02.449Z,36.224365
2019-04-21T08:32:59.407Z,37.402344
2019-04-21T08:33:44.860Z,37.384033
2019-04-21T08:34:42.757Z,35.638428
2019-04-21T08:36:02.838Z,35.986328
2019-04-21T08:36:39.806Z,34.130859
2019-04-21T08:37:42.815Z,33.782959
2019-04-21T08:38:47.721Z,33.276367
2019-04-21T08:39:47.702Z,32.202148
2019-04-21T08:40:48.961Z,33.917236
2019-04-21T08:41:43.652Z,33.721924
2019-04-21T08:42:44.526Z,33.538818
2019-04-21T08:43:44.415Z,33.850098
2019-04-21T08:44:46.499Z,35.473633
2019-04-21T08:45:46.596Z,36.102295
2019-04-21T08:46:45.889Z,37.115479
2019-04-21T08:47:45.624Z,36.834717
2019-04-21T08:48:41.878Z,37.548828
2019-04-21T08:49:40.819Z,37.451172
2019-04-21T08:50:43.007Z,37.353516
2019-04-21T08:51:48.115Z,36.968994
2019-04-21T08:52:48.676Z,39.459229
2019-04-21T08:53:47.375Z,38.067627
2019-04-21T08:54:40.461Z,38.085938
2019-04-21T08:55:48.719Z,37.60376
2019-04-21T08:57:50.294Z,37.542725
2019-04-21T08:58:49.478Z,38.85498
2019-04-21T08:59:43.339Z,37.756348
2019-04-21T09:00:46.613Z,38.17749
2019-04-21T09:01:42.565Z,38.476562
2019-04-21T09:02:46.237Z,38.891602
2019-04-21T09:03:42.840Z,39.074707
2019-04-21T09:04:45.671Z,37.37793
2019-04-21T09:05:42.289Z,39.49585
2019-04-21T09:07:04.348Z,39.996338
2019-04-21T09:07:44.522Z,38.592529
2019-04-21T09:08:45.427Z,39.196777
2019-04-21T09:09:46.592Z,38.696289
2019-04-21T09:10:46.615Z,37.994385
2019-04-21T09:11:47.026Z,38.17749
2019-04-21T09:12:45.983Z,39.056396
2019-04-21T09:13:40.779Z,37.207031
2019-04-21T09:14:41.296Z,36.889648
2019-04-21T09:15:41.401Z,36.175537
2019-04-21T09:16:40.554Z,37.054443
2019-04-21T09:17:36.411Z,37.213135
2019-04-21T09:18:40.291Z,37.115479
2019-04-21T09:20:12.553Z,36.932373
2019-04-21T09:21:49.779Z,39.459229
2019-04-21T09:22:47.551Z,39.080811
2019-04-21T09:23:44.462Z,37.982178
2019-04-21T09:24:45.233Z,37.719727
2019-04-21T09:25:45.991Z,39.520264
2019-04-21T09:26:39.303Z,38.702393
2019-04-21T09:27:40.867Z,37.402344
2019-04-21T09:28:39.285Z,38.201904
2019-04-21T09:29:35.341Z,38.421631
2019-04-21T09:30:30.633Z,38.421631
2019-04-21T09:31:33.678Z,39.300537
2019-04-21T09:32:31.310Z,38.366699
2019-04-21T09:33:33.319Z,38.464355
2019-04-21T09:34:33.086Z,37.8479
2019-04-21T09:35:29.142Z,36.968994
2019-04-21T09:36:34.900Z,38.067627
2019-04-21T09:37:39.529Z,38.885498
2019-04-21T09:38:36.146Z,38.201904
2019-04-21T09:39:31.244Z,37.103271
2019-04-21T09:40:34.358Z,38.323975
2019-04-21T09:41:29.730Z,39.337158
2019-04-21T09:42:35.829Z,38.85498
2019-04-21T09:43:36.139Z,42.150879
2019-04-21T09:44:33.206Z,40.356445
2019-04-21T09:45:28.723Z,40.95459
2019-04-21T09:46:29.873Z,41.07666
2019-04-21T09:47:37.902Z,40.594482
2019-04-21T09:48:42.574Z,41.394043
2019-04-21T09:49:31.600Z,40.17334
2019-04-21T09:50:29.502Z,39.074707
2019-04-21T09:51:30.444Z,40.472412
2019-04-21T09:52:37.476Z,39.477539
2019-04-21T09:53:34.902Z,39.154053
2019-04-21T09:54:33.326Z,40.252686
2019-04-21T09:55:36.275Z,41.052246
2019-04-21T09:56:38.043Z,39.855957
2019-04-21T09:57:38.000Z,39.355469
2019-04-21T09:58:36.213Z,39.459229
2019-04-21T09:59:35.306Z,37.042236
2019-04-21T10:00:33.314Z,38.018799
2019-04-21T10:01:44.589Z,38.104248
2019-04-21T10:02:37.250Z,37.304688
2019-04-21T10:03:35.846Z,38.000488
2019-04-21T10:04:31.102Z,38.104248
2019-04-21T10:05:29.718Z,38.500977
2019-04-21T10:06:30.555Z,38.201904
2019-04-21T10:07:34.677Z,36.291504
2019-04-21T10:08:30.390Z,37.17041
2019-04-21T10:09:31.028Z,37.670898
2019-04-21T10:10:29.778Z,37.371826
2019-04-21T10:11:30.972Z,36.889648
2019-04-21T10:12:30.755Z,34.613037
2019-04-21T10:13:29.783Z,33.331299
2019-04-21T10:14:30.910Z,31.152344
2019-04-21T10:15:30.011Z,32.476807
2019-04-21T10:16:30.068Z,36.779785
2019-04-21T10:17:30.032Z,38.07373
2019-04-21T10:18:31.680Z,32.196045
2019-04-21T10:19:36.507Z,33.496094
2019-04-21T10:20:30.868Z,32.196045
2019-04-21T10:21:31.589Z,32.794189
2019-04-21T10:22:32.918Z,33.69751
2019-04-21T10:23:31.584Z,34.680176
2019-04-21T10:24:30.685Z,33.880615
2019-04-21T10:25:32.471Z,33.563232
2019-04-21T10:26:30.814Z,33.044434
2019-04-21T10:27:31.495Z,32.629395
2019-04-21T10:28:31.054Z,32.617188
2019-04-21T10:29:32.898Z,35.5896
2019-04-21T10:30:32.896Z,33.880615
2019-04-21T10:31:30.970Z,34.47876
2019-04-21T10:32:32.398Z,36.175537
2019-04-21T10:33:32.414Z,34.942627
2019-04-21T10:34:31.501Z,35.125732
2019-04-21T10:35:31.242Z,33.221436
2019-04-21T10:36:31.241Z,33.117676
2019-04-21T10:37:41.835Z,34.112549
2019-04-21T10:38:37.883Z,34.100342
2019-04-21T10:39:33.602Z,33.184814
2019-04-21T10:40:33.538Z,32.672119
2019-04-21T10:41:33.068Z,32.177734
2019-04-21T10:42:32.939Z,33.666992
2019-04-21T10:43:33.353Z,33.47168
2019-04-21T10:44:32.043Z,32.476807
2019-04-21T10:45:32.778Z,32.37915
2019-04-21T10:46:32.919Z,31.365967
2019-04-21T10:47:34.512Z,29.962158
2019-04-21T10:48:34.912Z,26.715088
2019-04-21T10:49:32.705Z,28.009033
2019-04-21T10:50:32.647Z,26.898193
2019-04-21T10:51:32.907Z,27.282715
2019-04-21T10:52:34.602Z,27.099609
2019-04-21T10:53:32.725Z,27.227783
2019-04-21T10:54:48.926Z,28.601074
2019-04-21T10:55:48.373Z,28.02124
2019-04-21T10:56:38.460Z,30.987549
2019-04-21T10:57:34.855Z,31.384277
2019-04-21T10:58:34.118Z,29.876709
2019-04-21T10:59:33.408Z,27.301025
2019-04-21T11:00:34.612Z,26.501465
2019-04-21T11:01:34.765Z,27.79541
2019-04-21T11:02:34.766Z,28.265381
2019-04-21T11:03:35.110Z,28.747559
2019-04-21T11:04:37.200Z,29.541016
2019-04-21T11:05:35.010Z,27.752686
2019-04-21T11:06:34.725Z,29.229736
2019-04-21T11:07:40.211Z,28.222656
2019-04-21T11:08:38.417Z,26.922607
2019-04-21T11:09:36.074Z,27.996826
2019-04-21T11:10:34.380Z,26.586914
2019-04-21T11:11:34.568Z,26.177979
2019-04-21T11:12:37.465Z,26.959229
2019-04-21T11:13:36.858Z,27.636719
2019-04-21T11:14:35.573Z,25.45166
2019-04-21T11:15:35.103Z,23.577881
2019-04-21T11:16:35.278Z,23.303223
2019-04-21T11:17:36.515Z,24.523926
2019-04-21T11:18:36.262Z,25.427246
2019-04-21T11:19:36.875Z,25.524902
2019-04-21T11:20:35.381Z,25.793457
2019-04-21T11:21:36.726Z,26.361084
2019-04-21T11:22:36.842Z,27.423096
2019-04-21T11:23:37.475Z,26.818848
2019-04-21T11:24:36.698Z,25.90332
2019-04-21T11:25:35.941Z,24.725342
2019-04-21T11:26:35.943Z,25.292969
2019-04-21T11:27:37.280Z,22.241211
2019-04-21T11:28:36.739Z,24.194336
2019-04-21T11:29:37.136Z,24.481201
2019-04-21T11:30:35.909Z,25.378418
2019-04-21T11:31:36.866Z,25.354004
2019-04-21T11:32:37.112Z,22.991943
2019-04-21T11:33:37.578Z,23.681641
2019-04-21T11:34:36.754Z,21.166992
2019-04-21T11:35:37.159Z,21.801758
2019-04-21T11:36:37.385Z,23.486328
2019-04-21T11:37:37.846Z,23.66333
2019-04-21T11:38:54.090Z,24.530029
2019-04-21T11:39:45.455Z,25.091553
2019-04-21T11:40:38.014Z,23.101807
2019-04-21T11:41:36.595Z,23.681641
2019-04-21T11:42:37.770Z,23.083496
2019-04-21T11:43:37.075Z,22.979736
2019-04-21T11:44:39.383Z,23.76709
2019-04-21T11:45:38.155Z,22.381592
2019-04-21T11:46:38.336Z,21.478271
2019-04-21T11:47:38.532Z,24.029541
2019-04-21T11:48:39.861Z,24.017334
2019-04-21T11:49:39.023Z,22.436523
2019-04-21T11:50:39.098Z,20.965576
2019-04-21T11:51:37.837Z,20.684814
2019-04-21T11:52:38.872Z,20.587158
2019-04-21T11:53:39.133Z,21.563721
2019-04-21T11:54:38.918Z,20.10498
2019-04-21T11:55:42.906Z,20.849609
2019-04-21T11:56:39.054Z,21.746826
2019-04-21T11:57:42.750Z,24.084473
2019-04-21T11:58:39.541Z,22.003174
2019-04-21T11:59:39.561Z,22.283936
2019-04-21T12:00:38.257Z,22.65625
2019-04-21T12:01:39.531Z,21.453857
2019-04-21T12:02:39.466Z,21.350098
2019-04-21T12:03:39.817Z,20.751953
2019-04-21T12:04:39.266Z,22.717285
2019-04-21T12:05:39.483Z,23.0896
2019-04-21T12:06:44.246Z,23.175049
2019-04-21T12:07:40.879Z,21.209717
2019-04-21T12:08:44.034Z,22.198486
2019-04-21T12:09:40.107Z,21.618652
2019-04-21T12:10:39.691Z,20.153809
2019-04-21T12:11:39.234Z,20.397949
2019-04-21T12:12:39.386Z,21.380615
2019-04-21T12:13:40.547Z,23.120117
2019-04-21T12:14:41.811Z,20.166016
2019-04-21T12:15:40.895Z,20.153809
2019-04-21T12:16:41.182Z,20.855713
2019-04-21T12:21:58.695Z,23.187256
2019-04-21T12:22:49.509Z,22.991943
2019-04-21T12:23:48.561Z,22.412109
2019-04-21T12:24:49.060Z,23.00415
2019-04-21T12:25:49.386Z,21.740723
2019-04-21T12:26:49.724Z,23.114014
2019-04-21T12:27:49.915Z,22.314453
2019-04-21T12:28:50.066Z,23.577881
2019-04-21T12:29:49.364Z,20.141602
2019-04-21T12:30:49.633Z,22.991943
2019-04-21T12:31:49.610Z,23.382568
2019-04-21T12:32:49.377Z,22.796631
2019-04-21T12:33:49.787Z,21.618652
2019-04-21T12:34:51.704Z,22.686768
2019-04-21T12:35:49.700Z,22.491455
2019-04-21T12:36:50.748Z,24.273682
2019-04-21T12:37:51.009Z,21.923828
2019-04-21T12:38:55.544Z,23.468018
2019-04-21T12:39:52.510Z,19.940186
2019-04-21T12:40:52.471Z,20.64209
2019-04-21T12:41:50.772Z,22.796631
2019-04-21T12:42:50.601Z,22.216797
2019-04-21T12:43:50.785Z,23.577881